Latest Weather Observations for Longreach

IDQ60801

Issued at 6:02 am EST Wednesday 26 April 2017 (issued every 30 minutes, with the page automatically refreshed every 10 minutes)

About weather observations | Map of weather stations | Latest weather observations for QLD | Other Formats
Station Details ID: 036031 Name: LONGREACH AERO Lat: -23.44 Lon: 144.28 Height: 192.2 m
Data from the previous 72 hours. | See also: Recent months at Longreach
Date/Time
EST
Temp
°C
App
Temp
°C
Dew
Point
°C
Rel
Hum
%
Delta-T
°C
Wind Press
QNH
hPa
Press
MSL
hPa
Rain since
9am
mm
Dir  Spd
km/h
Gust
km/h
Spd
kts
Gust
kts
26/06:00am 22.2 18.8 10.7 48 6.4 WSW 19 26 10 14 1013.8 1012.9 0.0
26/05:30am 20.2 17.9 10.3 53 5.4 NNE 13 15 7 8 1012.5 1011.6 0.0
26/05:00am 21.0 18.6 10.2 50 5.9 NNE 13 15 7 8 1012.4 1011.5 0.0
26/04:30am 21.7 18.9 10.0 47 6.4 NNE 15 17 8 9 1012.3 1011.4 0.0
26/04:00am 21.4 18.6 10.1 48 6.2 N 15 19 8 10 1012.3 1011.4 0.0
26/03:30am 19.2 16.3 9.7 54 5.1 N 15 17 8 9 1012.2 1011.3 0.0
26/03:00am 20.6 17.3 9.7 49 5.9 NNE 17 19 9 10 1012.1 1011.2 0.0
26/02:30am 21.4 18.1 9.6 47 6.4 NNE 17 19 9 10 1012.3 1011.4 0.0
26/02:00am 21.5 18.1 9.0 44 6.7 NNE 17 19 9 10 1012.7 1011.8 0.0
26/01:30am 21.5 17.9 8.5 43 6.9 NNE 17 20 9 11 1013.0 1012.1 0.0
26/01:00am 21.1 17.1 8.2 43 6.8 NNE 19 20 10 11 1013.2 1012.3 0.0
26/12:30am 21.2 18.0 8.6 44 6.7 NNE 15 17 8 9 1013.4 1012.5 0.0
26/12:00am 21.8 18.2 8.2 41 7.2 NNE 17 17 9 9 1013.5 1012.6 0.0
 
Date/Time
EST
Temp
°C
App
Temp
°C
Dew
Point
°C
Rel
Hum
%
Delta-T
°C
Wind Press
QNH
hPa
Press
MSL
hPa
Rain since
9am
mm
Dir  Spd
km/h
Gust
km/h
Spd
kts
Gust
kts
25/11:30pm 21.4 18.5 8.1 42 7.0 NNE 13 15 7 8 1013.6 1012.7 0.0
25/11:00pm 22.2 19.3 8.0 40 7.5 NNE 13 15 7 8 1013.8 1012.9 0.0
25/10:30pm 23.3 20.3 7.6 36 8.3 NNE 13 17 7 9 1013.8 1012.9 0.0
25/10:00pm 24.3 20.9 7.8 34 8.8 NE 15 17 8 9 1013.8 1012.9 0.0
25/09:30pm 24.6 21.7 8.0 34 8.9 NE 13 15 7 8 1013.9 1013.0 0.0
25/09:00pm 25.9 22.3 8.2 32 9.6 NE 17 22 9 12 1013.8 1012.9 0.0
25/08:30pm 25.7 22.6 8.9 34 9.2 NE 15 15 8 8 1013.7 1012.8 0.0
25/08:00pm 25.7 23.3 8.6 33 9.3 NNE 11 15 6 8 1013.6 1012.7 0.0
25/07:30pm 26.5 24.9 8.6 32 9.8 N 7 9 4 5 1013.5 1012.6 0.0
25/07:00pm 26.6 25.5 10.5 36 9.1 N 7 7 4 4 1013.2 1012.3 0.0
25/06:30pm 27.7 26.5 10.4 34 9.8 N 7 9 4 5 1013.0 1012.1 0.0
25/06:00pm 30.0 28.2 9.5 28 11.6 N 9 11 5 6 1012.7 1011.8 0.0
25/05:30pm 31.4 29.7 9.7 26 12.4 N 9 9 5 5 1012.5 1011.6 0.0
25/05:00pm 32.1 30.6 9.3 24 13.0 ESE 7 11 4 6 1012.3 1011.4 0.0
25/04:30pm 33.1 31.7 8.8 22 13.8 SSE 6 9 3 5 1012.4 1011.5 0.0
25/04:00pm 33.6 31.2 8.8 21 14.1 WNW 11 17 6 9 1012.4 1011.5 0.0
25/03:30pm 33.1 29.5 8.5 22 13.9 NNE 17 28 9 15 1012.5 1011.6 0.0
25/03:00pm 33.3 30.6 8.9 22 13.9 NW 13 19 7 10 1012.4 1011.5 0.0
25/02:30pm 33.1 29.8 9.6 23 13.5 NNE 17 26 9 14 1012.5 1011.6 0.0
25/02:00pm 32.5 29.7 9.9 25 13.0 N 15 22 8 12 1012.8 1011.9 0.0
25/01:30pm 32.4 30.3 11.3 27 12.4 NNE 13 28 7 15 1013.3 1012.4 0.0
25/01:00pm 32.2 30.4 11.0 27 12.4 N 11 22 6 12 1014.0 1013.1 0.0
25/12:30pm 31.2 29.6 12.8 32 11.0 NNE 13 20 7 11 1014.6 1013.7 0.0
25/12:00pm 30.7 28.6 12.5 32 10.8 NNE 15 20 8 11 1015.4 1014.4 0.0
25/11:30am 30.1 28.4 13.7 36 9.9 NNE 15 24 8 13 1016.1 1015.2 0.0
25/11:00am 30.0 28.1 14.2 38 9.6 NNE 17 28 9 15 1016.7 1015.8 0.0
25/10:30am 29.2 27.0 14.8 41 8.8 NNE 20 30 11 16 1017.1 1016.2 0.0
25/10:00am 27.3 24.2 14.4 45 7.8 NNE 24 30 13 16 1017.4 1016.5 0.0
25/09:30am 26.7 23.5 14.2 46 7.5 NNE 24 32 13 17 1017.3 1016.4 0.0
25/09:00am 25.1 21.4 14.0 50 6.6 NNE 26 30 14 16 1017.3 1016.4 0.0
25/08:30am 23.8 20.7 14.4 55 5.6 NNE 24 32 13 17 1017.0 1016.1 0.0
25/08:00am 22.3 19.3 13.6 58 5.1 NNE 22 28 12 15 1016.7 1015.8 0.0
25/07:30am 20.6 18.2 12.7 60 4.5 NE 17 22 9 12 1016.5 1015.6 0.0
25/07:00am 18.4 16.9 11.9 66 3.6 NE 11 13 6 7 1016.3 1015.4 0.0
25/06:30am 16.8 15.5 11.3 70 3.0 ENE 9 11 5 6 1016.2 1015.3 0.0
25/06:00am 16.8 15.8 10.9 68 3.2 ENE 7 9 4 5 1015.9 1015.0 0.0
25/05:30am 17.2 14.9 10.5 64 3.6 NE 13 13 7 7 1015.6 1014.6 0.0
25/05:00am 16.9 15.6 10.1 64 3.6 NE 7 9 4 5 1015.4 1014.4 0.0
25/04:30am 17.5 16.5 10.9 65 3.6 NNE 7 9 4 5 1015.2 1014.2 0.0
25/04:00am 18.0 15.6 10.0 59 4.3 NE 13 15 7 8 1014.9 1014.0 0.0
25/03:30am 17.9 15.3 9.4 57 4.5 NNE 13 17 7 9 1014.8 1013.9 0.0
25/03:00am 18.6 15.3 9.6 55 4.8 NE 17 19 9 10 1014.9 1014.0 0.0
25/02:30am 18.6 16.0 9.4 55 4.9 NNE 13 15 7 8 1014.9 1014.0 0.0
25/02:00am 19.0 16.4 9.2 53 5.2 NNE 13 15 7 8 1015.4 1014.4 0.0
25/01:30am 19.7 17.1 9.4 51 5.5 NE 13 15 7 8 1015.7 1014.7 0.0
25/01:00am 19.7 17.1 9.4 51 5.5 ENE 13 15 7 8 1016.1 1015.2 0.0
25/12:30am 20.3 17.7 9.3 49 5.9 NNE 13 13 7 7 1016.2 1015.3 0.0
25/12:00am 21.2 18.6 9.3 46 6.4 NNE 13 13 7 7 1016.3 1015.4 0.0
 
Date/Time
EST
Temp
°C
App
Temp
°C
Dew
Point
°C
Rel
Hum
%
Delta-T
°C
Wind Press
QNH
hPa
Press
MSL
hPa
Rain since
9am
mm
Dir  Spd
km/h
Gust
km/h
Spd
kts
Gust
kts
24/11:30pm 21.8 19.2 9.2 44 6.8 NE 13 13 7 7 1016.4 1015.5 0.0
24/11:00pm 22.5 19.9 9.2 42 7.2 NE 13 15 7 8 1016.6 1015.7 0.0
24/10:30pm 22.6 19.6 9.1 42 7.3 ENE 15 17 8 9 1016.7 1015.8 0.0
24/10:00pm 23.3 20.3 9.1 40 7.7 ENE 15 15 8 8 1016.7 1015.8 0.0
24/09:30pm 24.4 21.3 9.0 37 8.4 ENE 15 17 8 9 1016.5 1015.6 0.0
24/09:00pm 23.9 21.0 9.5 40 7.9 ENE 15 17 8 9 1016.4 1015.5 0.0
24/08:30pm 24.2 21.2 9.4 39 8.1 ENE 15 17 8 9 1016.1 1015.2 0.0
24/08:00pm 24.5 21.6 9.6 39 8.2 E 15 15 8 8 1015.9 1015.0 0.0
24/07:30pm 25.2 22.4 9.9 38 8.5 E 15 17 8 9 1015.6 1014.6 0.0
24/07:00pm 25.9 23.5 9.9 36 8.9 E 13 15 7 8 1015.3 1014.3 0.0
24/06:30pm 27.0 24.6 10.1 34 9.5 E 13 15 7 8 1014.9 1014.0 0.0
24/06:00pm 29.3 26.9 9.9 30 11.0 E 13 15 7 8 1014.6 1013.7 0.0
24/05:30pm 31.0 28.1 9.8 27 12.1 E 15 20 8 11 1014.5 1013.6 0.0
24/05:00pm 31.7 28.0 9.4 25 12.7 ESE 19 28 10 15 1014.3 1013.4 0.0
24/04:30pm 32.0 29.1 9.6 25 12.8 ENE 15 30 8 16 1014.2 1013.3 0.0
24/04:00pm 32.4 29.9 9.7 24 13.0 ESE 13 20 7 11 1014.2 1013.3 0.0
24/03:30pm 31.7 29.4 10.4 27 12.3 ENE 13 19 7 10 1014.3 1013.4 0.0
24/03:00pm 32.3 30.0 10.6 26 12.6 ENE 13 20 7 11 1014.4 1013.5 0.0
24/02:30pm 31.9 29.5 10.2 26 12.5 ENE 13 22 7 12 1014.7 1013.8 0.0
24/02:00pm 30.4 28.8 11.4 31 11.1 SE 11 22 6 12 1015.3 1014.3 0.0
24/01:30pm 30.4 27.7 11.6 31 11.0 ESE 17 30 9 16 1015.7 1014.7 0.0
24/01:00pm 30.5 29.0 11.8 31 11.0 ENE 11 17 6 9 1016.5 1015.6 0.0
24/12:30pm 30.8 28.3 12.4 32 10.9 ENE 17 30 9 16 1016.7 1015.8 0.0
24/12:00pm 30.3 27.4 12.4 33 10.6 NE 19 30 10 16 1017.2 1016.3 0.0
24/11:30am 30.1 27.3 12.6 34 10.4 ENE 19 28 10 15 1017.9 1017.0 0.0
24/11:00am 29.2 26.8 12.6 36 9.8 NE 17 30 9 16 1018.5 1017.6 0.0
24/10:30am 28.9 26.1 13.1 37 9.4 NNE 20 28 11 15 1018.9 1018.0 0.0
24/10:00am 27.9 25.2 13.5 41 8.6 NE 20 30 11 16 1019.1 1018.2 0.0
24/09:30am 26.4 23.6 14.2 47 7.3 NNE 22 28 12 15 1019.2 1018.3 0.0
24/09:00am 25.3 23.2 14.6 51 6.4 NE 19 24 10 13 1019.1 1018.2 0.0
24/08:30am 24.2 22.6 14.9 56 5.6 NE 17 20 9 11 1018.8 1017.9 0.0
24/08:00am 22.9 21.4 14.3 58 5.1 NE 15 19 8 10 1018.7 1017.8 0.0
24/07:30am 19.7 18.3 12.2 62 4.2 ENE 11 13 6 7 1018.5 1017.6 0.0
24/07:00am 17.6 16.0 11.4 67 3.4 E 11 11 6 6 1018.3 1017.4 0.0
24/06:30am 17.8 16.8 12.2 70 3.1 ESE 9 11 5 6 1018.0 1017.1 0.0
24/06:00am 17.4 16.3 11.8 69 3.1 ENE 9 11 5 6 1017.6 1016.7 0.0
24/05:30am 17.8 15.8 11.6 67 3.4 E 13 13 7 7 1017.3 1016.4 0.0
24/05:00am 18.9 17.0 11.9 64 3.9 E 13 15 7 8 1017.1 1016.2 0.0
24/04:30am 18.0 16.4 11.7 66 3.5 ENE 11 13 6 7 1016.8 1015.9 0.0
24/04:00am 18.2 16.2 11.5 65 3.7 E 13 15 7 8 1016.7 1015.8 0.0
24/03:30am 18.3 16.1 10.8 61 4.1 ENE 13 15 7 8 1016.9 1016.0 0.0
24/03:00am 19.0 16.7 10.3 57 4.7 E 13 15 7 8 1017.1 1016.2 0.0
24/02:30am 19.5 17.2 10.3 55 5.0 E 13 13 7 7 1017.3 1016.4 0.0
24/02:00am 19.3 16.9 10.0 55 5.0 ESE 13 13 7 7 1017.5 1016.6 0.0
24/01:30am 20.6 18.8 11.0 54 5.3 E 11 13 6 7 1017.6 1016.7 0.0
24/01:00am 20.9 19.1 11.0 53 5.5 E 11 11 6 6 1017.8 1016.9 0.0
24/12:30am 20.3 18.6 10.0 51 5.6 ESE 9 11 5 6 1017.8 1016.9 0.0
24/12:00am 20.6 19.3 9.9 50 5.8 ENE 7 9 4 5 1017.9 1017.0 0.0
 
Date/Time
EST
Temp
°C
App
Temp
°C
Dew
Point
°C
Rel
Hum
%
Delta-T
°C
Wind Press
QNH
hPa
Press
MSL
hPa
Rain since
9am
mm
Dir  Spd
km/h
Gust
km/h
Spd
kts
Gust
kts
23/11:30pm 21.6 19.0 9.4 45 6.6 E 13 15 7 8 1018.1 1017.2 0.0
23/11:00pm 21.7 18.6 9.0 44 6.8 ESE 15 19 8 10 1018.2 1017.3 0.0
23/10:30pm 22.1 19.2 8.3 41 7.3 ESE 13 15 7 8 1018.3 1017.4 0.0
23/10:00pm 22.6 19.3 8.1 39 7.7 ESE 15 15 8 8 1018.4 1017.5 0.0
23/09:30pm 22.8 19.5 8.1 39 7.8 ESE 15 15 8 8 1018.4 1017.5 0.0
23/09:00pm 23.1 19.7 7.8 37 8.1 E 15 17 8 9 1018.2 1017.3 0.0
23/08:30pm 23.0 20.2 8.4 39 7.8 ESE 13 15 7 8 1018.0 1017.1 0.0
23/08:00pm 24.6 21.8 8.5 36 8.7 ESE 13 13 7 7 1017.7 1016.8 0.0
23/07:30pm 25.3 22.9 8.5 34 9.1 ESE 11 13 6 7 1017.1 1016.2 0.0
23/07:00pm 25.7 22.9 8.4 33 9.4 E 13 15 7 8 1016.6 1015.7 0.0
23/06:30pm 26.9 24.2 8.9 32 9.9 ESE 13 15 7 8 1016.5 1015.6 0.0
23/06:00pm 28.4 26.4 8.7 29 10.9 ESE 9 11 5 6 1016.5 1015.6 0.0
23/05:30pm 29.9 26.9 7.9 25 12.1 ESE 13 15 7 8 1016.1 1015.2 0.0
23/05:00pm 30.8 27.6 8.3 24 12.5 E 15 20 8 11 1015.9 1015.0 0.0
23/04:30pm 30.4 26.4 8.2 25 12.3 E 19 28 10 15 1015.7 1014.7 0.0
23/04:00pm 30.6 27.3 9.4 26 12.0 ESE 17 24 9 13 1015.6 1014.6 0.0
23/03:30pm 32.0 28.4 8.5 23 13.2 ENE 17 30 9 16 1015.7 1014.7 0.0
23/03:00pm 32.0 28.1 8.8 23 13.1 ENE 19 30 10 16 1015.9 1015.0 0.0
23/02:30pm 30.8 26.8 9.2 26 12.2 E 20 30 11 16 1016.2 1015.3 0.0
23/02:00pm 31.4 27.6 9.1 25 12.6 E 19 32 10 17 1016.5 1015.6 0.0
23/01:30pm 31.1 27.2 9.4 26 12.3 E 20 32 11 17 1016.9 1016.0 0.0
23/01:00pm 30.7 28.4 10.6 29 11.6 ENE 13 17 7 9 1017.3 1016.4 0.0
23/12:30pm 29.5 26.8 10.2 30 11.0 ESE 15 30 8 16 1018.0 1017.1 0.0
23/12:00pm 29.1 26.1 10.6 31 10.6 E 17 28 9 15 1018.5 1017.6 0.0
23/11:30am 29.5 27.2 11.7 33 10.4 ENE 15 30 8 16 1019.1 1018.2 0.0
23/11:00am 28.3 24.8 10.8 33 10.0 ENE 20 30 11 16 1019.7 1018.8 0.0
23/10:30am 27.8 24.6 13.1 40 8.7 NE 22 33 12 18 1020.0 1019.1 0.0
23/10:00am 26.6 22.8 13.6 44 7.7 ENE 26 33 14 18 1020.2 1019.3 0.0
23/09:30am 26.0 22.7 13.9 47 7.2 NE 24 32 13 17 1020.3 1019.4 0.0
23/09:00am 24.8 21.0 13.6 49 6.6 NE 26 35 14 19 1020.2 1019.3 0.0
23/08:30am 23.4 19.6 13.5 53 5.8 NE 26 33 14 18 1020.0 1019.1 0.0
23/08:00am 22.2 19.0 13.2 56 5.2 NE 22 30 12 16 1019.8 1018.9 0.0
23/07:30am 20.1 17.3 11.5 57 4.8 ENE 17 19 9 10 1019.6 1018.7 0.0
23/07:00am 17.6 15.3 10.3 62 3.9 E 13 15 7 8 1019.3 1018.4 0.0
23/06:30am 17.5 15.1 10.0 61 4.0 E 13 15 7 8 1018.9 1018.0 0.0

Other Formats:

Comma delimited format used in spreadsheet applications
http://www.bom.gov.au/fwo/IDQ60801/IDQ60801.94346.axf

JavaScript Object Notation format (JSON) in row-major order
http://www.bom.gov.au/fwo/IDQ60801/IDQ60801.94346.json